createdAt,value
2022-11-25T00:01:33.469Z,15.73
2022-11-25T00:04:03.854Z,23.17
2022-11-25T00:06:34.582Z,16.10
2022-11-25T00:09:05.787Z,14.77
2022-11-25T00:11:37.201Z,17.77
2022-11-25T00:14:06.146Z,14.57
2022-11-25T00:16:34.761Z,17.73
2022-11-25T00:19:04.560Z,18.00
2022-11-25T00:21:35.291Z,20.07
2022-11-25T00:24:07.084Z,14.87
2022-11-25T00:26:37.465Z,15.20
2022-11-25T00:29:08.109Z,22.63
2022-11-25T00:31:39.343Z,13.13
2022-11-25T00:34:12.656Z,25.50
2022-11-25T00:36:40.955Z,19.17
2022-11-25T00:39:13.659Z,14.90
2022-11-25T00:42:00.124Z,18.10
2022-11-25T00:44:39.609Z,16.77
2022-11-25T00:47:12.262Z,16.07
2022-11-25T00:49:44.080Z,18.47
2022-11-25T00:52:17.533Z,16.77
2022-11-25T00:54:47.694Z,21.73
2022-11-25T00:57:17.260Z,14.97
2022-11-25T00:59:45.704Z,16.90
2022-11-25T01:02:15.842Z,18.90
2022-11-25T01:04:45.700Z,14.67
2022-11-25T01:07:14.253Z,15.20
2022-11-25T01:09:42.573Z,18.33
2022-11-25T01:12:10.908Z,21.07
2022-11-25T01:14:39.954Z,19.77
2022-11-25T01:17:08.402Z,16.73
2022-11-25T01:19:39.992Z,16.83
2022-11-25T01:22:10.427Z,16.33
2022-11-25T01:24:39.055Z,18.30
2022-11-25T01:27:07.336Z,23.50
2022-11-25T01:29:35.558Z,16.90
2022-11-25T01:32:03.850Z,17.07
2022-11-25T01:34:34.611Z,16.10
2022-11-25T01:37:03.044Z,19.23
2022-11-25T01:39:33.407Z,16.80
2022-11-25T01:42:02.322Z,13.23
2022-11-25T01:44:33.992Z,13.37
2022-11-25T01:47:07.085Z,15.70
2022-11-25T01:49:42.030Z,14.23
2022-11-25T01:52:16.901Z,15.70
2022-11-25T01:54:53.738Z,15.37
2022-11-25T01:57:26.218Z,17.60
2022-11-25T01:59:57.864Z,12.83
2022-11-25T02:02:26.431Z,13.97
2022-11-25T02:04:54.870Z,13.30
2022-11-25T02:07:29.763Z,14.80
2022-11-25T02:10:01.335Z,16.77
2022-11-25T02:12:30.626Z,17.10
2022-11-25T02:15:00.989Z,15.97
2022-11-25T02:17:29.685Z,16.53
2022-11-25T02:20:05.577Z,15.00
2022-11-25T02:22:48.645Z,14.53
2022-11-25T02:25:21.414Z,20.43
2022-11-25T02:27:55.442Z,12.97
2022-11-25T02:30:23.652Z,18.73
2022-11-25T02:32:54.173Z,10.30
2022-11-25T02:35:33.359Z,16.83
2022-11-25T02:38:09.358Z,16.07
2022-11-25T02:40:46.411Z,14.20
2022-11-25T02:43:15.123Z,21.07
2022-11-25T02:45:58.298Z,21.03
2022-11-25T02:48:52.781Z,17.03
2022-11-25T02:51:20.291Z,19.77
2022-11-25T02:53:48.875Z,14.57
2022-11-25T02:56:20.394Z,13.70
2022-11-25T02:58:48.627Z,15.73
2022-11-25T03:01:17.057Z,14.13
2022-11-25T03:03:45.436Z,17.87
2022-11-25T03:06:13.902Z,18.23
2022-11-25T03:08:42.226Z,17.63
2022-11-25T03:11:10.427Z,15.40
2022-11-25T03:13:40.236Z,16.77
2022-11-25T03:16:09.194Z,14.33
2022-11-25T03:18:37.752Z,14.23
2022-11-25T03:21:07.312Z,18.73
2022-11-25T03:23:35.532Z,19.03
2022-11-25T03:26:07.799Z,19.23
2022-11-25T03:28:36.087Z,18.00
2022-11-25T03:31:05.759Z,18.70
2022-11-25T03:33:34.121Z,19.03
2022-11-25T03:36:02.336Z,17.23
2022-11-25T03:38:30.636Z,19.40
2022-11-25T03:40:59.003Z,19.87
2022-11-25T03:43:27.349Z,22.80
2022-11-25T03:45:55.607Z,18.80
2022-11-25T03:48:25.262Z,24.07
2022-11-25T03:50:53.440Z,22.93
2022-11-25T03:53:21.693Z,19.77
2022-11-25T03:55:50.045Z,19.70
2022-11-25T03:58:20.513Z,20.23
2022-11-25T04:00:48.694Z,20.83
2022-11-25T04:03:17.234Z,19.60
2022-11-25T04:05:46.808Z,17.60
2022-11-25T04:08:15.379Z,20.90
2022-11-25T04:10:43.795Z,15.67
2022-11-25T04:13:10.995Z,26.97
2022-11-25T04:15:44.886Z,24.40
2022-11-25T04:18:13.103Z,18.97
2022-11-25T04:20:41.392Z,17.70
2022-11-25T04:23:11.712Z,18.33
2022-11-25T04:25:40.428Z,24.47
2022-11-25T04:28:08.704Z,24.07
2022-11-25T04:30:38.223Z,22.90
2022-11-25T04:33:06.791Z,21.97
2022-11-25T04:35:35.237Z,19.63
2022-11-25T04:38:03.495Z,21.23
2022-11-25T04:40:33.116Z,22.63
2022-11-25T04:43:06.034Z,21.43
2022-11-25T04:45:58.689Z,25.03
2022-11-25T04:48:24.453Z,21.33
2022-11-25T04:50:52.684Z,23.93
2022-11-25T04:53:20.891Z,24.80
2022-11-25T04:55:50.602Z,20.77
2022-11-25T04:58:38.846Z,25.53
2022-11-25T05:01:06.122Z,24.00
2022-11-25T05:03:34.652Z,23.43
2022-11-25T05:06:07.936Z,25.47
2022-11-25T05:08:36.411Z,22.23
2022-11-25T05:11:07.763Z,23.90
2022-11-25T05:13:36.032Z,22.43
2022-11-25T05:16:04.652Z,20.63
2022-11-25T05:18:32.878Z,21.43
2022-11-25T05:21:03.189Z,25.70
2022-11-25T05:23:31.614Z,19.23
2022-11-25T05:26:01.459Z,26.57
2022-11-25T05:28:32.491Z,23.93
2022-11-25T05:31:00.789Z,28.80
2022-11-25T05:33:29.187Z,30.50
2022-11-25T05:35:58.877Z,26.40
2022-11-25T05:38:27.819Z,27.17
2022-11-25T05:41:01.788Z,22.73
2022-11-25T05:43:31.428Z,24.30
2022-11-25T05:45:59.788Z,21.37
2022-11-25T05:48:28.088Z,26.53
2022-11-25T05:50:56.292Z,29.77
2022-11-25T05:53:24.502Z,31.90
2022-11-25T05:55:58.757Z,34.40
2022-11-25T05:58:27.863Z,37.87
2022-11-25T06:00:58.202Z,30.30
2022-11-25T06:03:27.279Z,33.23
2022-11-25T06:05:57.360Z,26.47
2022-11-25T06:08:25.924Z,25.03
2022-11-25T06:10:54.538Z,27.80
2022-11-25T06:13:23.115Z,27.87
2022-11-25T06:15:51.443Z,26.60
2022-11-25T06:18:21.164Z,31.00
2022-11-25T06:20:58.395Z,34.53
2022-11-25T06:23:26.990Z,23.90
2022-11-25T06:25:55.215Z,28.23
2022-11-25T06:28:23.382Z,28.70
2022-11-25T06:30:51.673Z,30.33
2022-11-25T06:33:21.285Z,24.77
2022-11-25T06:35:50.766Z,27.63
2022-11-25T06:38:19.125Z,28.27
2022-11-25T06:40:47.307Z,28.13
2022-11-25T06:43:15.594Z,26.50
2022-11-25T06:45:44.256Z,27.07
2022-11-25T06:48:12.638Z,30.13
2022-11-25T06:50:42.417Z,33.73
2022-11-25T06:53:10.673Z,29.23
2022-11-25T06:55:39.265Z,32.27
2022-11-25T06:58:33.908Z,35.07
2022-11-25T07:00:55.680Z,32.87
2022-11-25T07:03:23.899Z,28.33
2022-11-25T07:05:53.582Z,29.37
2022-11-25T07:08:25.108Z,26.40
2022-11-25T07:10:55.840Z,27.17
2022-11-25T07:13:24.781Z,25.90
2022-11-25T07:15:53.139Z,26.40
2022-11-25T07:18:21.452Z,22.97
2022-11-25T07:20:49.659Z,27.87
2022-11-25T07:23:19.161Z,24.87
2022-11-25T07:25:47.369Z,21.57
2022-11-25T07:28:15.649Z,23.83
2022-11-25T07:33:32.215Z,23.47
2022-11-25T07:36:04.411Z,24.77
2022-11-25T07:38:34.767Z,23.77
2022-11-25T07:41:07.575Z,20.47
2022-11-25T07:43:36.267Z,19.10
2022-11-25T07:46:13.530Z,20.93
2022-11-25T07:48:42.545Z,24.27
2022-11-25T07:51:17.304Z,17.37
2022-11-25T07:53:47.355Z,20.00
2022-11-25T07:56:17.702Z,19.93
2022-11-25T07:58:46.691Z,15.07
2022-11-25T08:01:17.101Z,21.93
2022-11-25T08:03:47.782Z,22.13
2022-11-25T08:06:19.943Z,22.67
2022-11-25T08:08:52.831Z,19.47
2022-11-25T08:11:24.133Z,22.40
2022-11-25T08:13:52.485Z,18.23
2022-11-25T08:16:23.424Z,18.30
2022-11-25T08:18:51.800Z,22.07
2022-11-25T08:21:21.012Z,16.33
2022-11-25T08:23:52.548Z,23.23
2022-11-25T08:26:24.177Z,22.33
2022-11-25T08:28:52.647Z,21.43
2022-11-25T08:31:23.859Z,17.17
2022-11-25T08:33:53.641Z,18.70
2022-11-25T08:36:22.435Z,17.60
2022-11-25T08:38:57.520Z,19.07
2022-11-25T08:41:30.096Z,17.33
2022-11-25T08:43:59.873Z,19.97
2022-11-25T08:46:33.600Z,16.53
2022-11-25T08:49:02.461Z,19.57
2022-11-25T08:51:35.694Z,21.57
2022-11-25T08:54:06.427Z,18.57
2022-11-25T08:56:34.801Z,18.03
2022-11-25T08:59:03.070Z,19.93
2022-11-25T09:01:31.462Z,12.60
2022-11-25T09:04:00.427Z,18.40
2022-11-25T09:06:30.431Z,19.60
2022-11-25T09:09:01.722Z,21.57
2022-11-25T09:11:31.522Z,18.37
2022-11-25T09:13:59.864Z,18.50
2022-11-25T09:16:28.509Z,19.23
2022-11-25T09:18:59.998Z,15.47
2022-11-25T09:21:28.366Z,16.20
2022-11-25T09:23:56.657Z,19.00
2022-11-25T09:26:28.104Z,17.93
2022-11-25T09:28:57.684Z,17.20
2022-11-25T09:31:26.318Z,18.60
2022-11-25T09:33:54.809Z,15.00
2022-11-25T09:36:23.668Z,16.33
2022-11-25T09:38:52.629Z,19.93
2022-11-25T09:42:02.624Z,19.40
2022-11-25T09:45:05.793Z,19.27
2022-11-25T09:47:47.619Z,17.07
2022-11-25T09:50:34.399Z,20.00
2022-11-25T09:53:11.048Z,16.00
2022-11-25T09:55:44.145Z,18.33
2022-11-25T09:58:26.977Z,16.23
2022-11-25T10:00:56.717Z,16.60
2022-11-25T10:03:35.684Z,15.40
2022-11-25T10:06:08.558Z,18.37
2022-11-25T10:08:41.461Z,16.93
2022-11-25T10:11:23.516Z,21.43
2022-11-25T10:13:59.271Z,16.63
2022-11-25T10:16:37.411Z,15.87
2022-11-25T10:19:24.415Z,12.00
2022-11-25T10:21:53.535Z,13.70
2022-11-25T10:24:23.066Z,13.73
2022-11-25T10:26:59.203Z,14.30
2022-11-25T10:29:32.318Z,13.27
2022-11-25T10:32:24.201Z,12.03
2022-11-25T10:34:55.912Z,10.57
2022-11-25T10:37:30.872Z,12.47
2022-11-25T10:39:59.115Z,12.90
2022-11-25T10:42:29.838Z,13.40
2022-11-25T10:44:57.967Z,12.57
2022-11-25T10:47:42.365Z,13.33
2022-11-25T10:50:18.917Z,18.00
2022-11-25T10:52:57.236Z,12.10
2022-11-25T10:55:28.052Z,14.30
2022-11-25T10:57:57.015Z,10.97
2022-11-25T11:00:34.949Z,10.73
2022-11-25T11:03:17.237Z,12.60
2022-11-25T11:05:48.792Z,10.60
2022-11-25T11:08:23.019Z,13.40
2022-11-25T11:11:18.029Z,11.03
2022-11-25T11:13:47.496Z,12.33
2022-11-25T11:16:31.946Z,20.30
2022-11-25T11:19:02.056Z,10.23
2022-11-25T11:21:33.874Z,11.97
2022-11-25T11:24:03.815Z,7.67
2022-11-25T11:26:34.735Z,11.37
2022-11-25T11:29:11.220Z,10.03
2022-11-25T11:31:48.403Z,12.23
2022-11-25T11:34:49.064Z,12.97
2022-11-25T11:37:40.772Z,9.33
2022-11-25T11:40:43.271Z,7.87
2022-11-25T11:43:29.395Z,11.03
2022-11-25T11:46:16.161Z,9.77
2022-11-25T11:48:55.800Z,7.17
2022-11-25T11:51:33.533Z,13.23
2022-11-25T11:54:09.571Z,8.37
2022-11-25T11:56:43.198Z,10.63
2022-11-25T11:59:46.234Z,8.93
2022-11-25T12:02:31.214Z,9.93
2022-11-25T12:05:13.362Z,7.90
2022-11-25T12:07:54.823Z,7.50
2022-11-25T12:10:28.762Z,8.63
2022-11-25T12:13:09.037Z,10.27
2022-11-25T12:15:46.944Z,10.07
2022-11-25T12:18:32.071Z,7.37
2022-11-25T12:21:05.262Z,12.33
2022-11-25T12:23:46.513Z,10.87
2022-11-25T12:26:24.479Z,10.87
2022-11-25T12:29:00.920Z,11.10
2022-11-25T12:31:34.129Z,12.27
2022-11-25T12:34:10.747Z,10.63
2022-11-25T12:36:41.720Z,9.07
2022-11-25T12:39:25.043Z,14.10
2022-11-25T12:41:57.647Z,8.20
2022-11-25T12:44:33.388Z,9.03
2022-11-25T12:47:01.870Z,9.23
2022-11-25T12:49:33.399Z,13.33
2022-11-25T12:52:44.281Z,12.30
2022-11-25T12:55:19.716Z,8.43
2022-11-25T12:58:24.867Z,9.20
2022-11-25T13:01:36.426Z,10.17
2022-11-25T13:04:37.774Z,8.70
2022-11-25T13:07:31.263Z,9.60
2022-11-25T13:10:44.243Z,11.83
2022-11-25T13:13:38.983Z,12.17
2022-11-25T13:16:10.907Z,7.50
2022-11-25T13:18:44.274Z,11.50
2022-11-25T13:21:20.997Z,9.97
2022-11-25T13:23:52.560Z,10.83
2022-11-25T13:26:50.277Z,9.87
2022-11-25T13:30:03.016Z,8.43
2022-11-25T13:32:37.875Z,8.27
2022-11-25T13:35:51.543Z,9.17
2022-11-25T13:39:00.987Z,10.87
2022-11-25T13:41:43.475Z,11.00
2022-11-25T13:44:28.379Z,11.73
2022-11-25T13:46:59.625Z,8.93
2022-11-25T13:49:34.048Z,8.87
2022-11-25T13:52:10.315Z,12.60
2022-11-25T13:54:45.668Z,11.03
2022-11-25T13:57:29.407Z,6.60
2022-11-25T14:00:00.960Z,13.13
2022-11-25T14:02:45.195Z,13.30
2022-11-25T14:05:43.324Z,13.70
2022-11-25T14:08:23.572Z,9.70
2022-11-25T14:11:14.217Z,12.17
2022-11-25T14:14:04.089Z,9.93
2022-11-25T14:16:52.295Z,10.90
2022-11-25T14:20:08.754Z,13.27
2022-11-25T14:23:02.617Z,11.23
2022-11-25T14:25:46.069Z,10.23
2022-11-25T14:28:28.449Z,13.40
2022-11-25T14:31:02.036Z,13.67
2022-11-25T14:33:38.213Z,9.77
2022-11-25T14:36:13.704Z,9.73
2022-11-25T14:38:50.494Z,12.00
2022-11-25T14:41:23.768Z,12.73
2022-11-25T14:43:58.265Z,14.20
2022-11-25T14:46:27.040Z,15.10
2022-11-25T14:48:57.488Z,9.63
2022-11-25T14:51:35.012Z,9.73
2022-11-25T14:54:05.020Z,13.13
2022-11-25T14:56:37.287Z,9.20
2022-11-25T14:59:09.292Z,12.57
2022-11-25T15:01:39.260Z,12.60
2022-11-25T15:04:19.623Z,9.17
2022-11-25T15:06:55.074Z,12.40
2022-11-25T15:09:26.839Z,14.20
2022-11-25T15:11:59.146Z,10.83
2022-11-25T15:14:29.817Z,13.77
2022-11-25T15:16:59.779Z,13.63
2022-11-25T15:19:34.227Z,9.77
2022-11-25T15:22:24.349Z,15.50
2022-11-25T15:24:56.197Z,11.53
2022-11-25T15:27:26.974Z,11.83
2022-11-25T15:29:58.481Z,10.60
2022-11-25T15:32:30.207Z,13.97
2022-11-25T15:35:02.031Z,10.23
2022-11-25T15:37:31.848Z,14.30
2022-11-25T15:40:36.973Z,13.57
2022-11-25T15:43:08.653Z,11.63
2022-11-25T15:45:47.819Z,14.63
2022-11-25T15:48:22.046Z,14.30
2022-11-25T15:50:50.823Z,10.53
2022-11-25T15:53:33.140Z,14.10
2022-11-25T15:56:03.301Z,13.90
2022-11-25T15:58:32.933Z,19.53
2022-11-25T16:01:05.865Z,15.33
2022-11-25T16:03:36.796Z,16.87
2022-11-25T16:06:22.965Z,18.87
2022-11-25T16:09:00.295Z,15.30
2022-11-25T16:11:33.508Z,13.93
2022-11-25T16:14:18.792Z,16.90
2022-11-25T16:16:48.031Z,24.27
2022-11-25T16:19:21.812Z,14.87
2022-11-25T16:21:58.140Z,15.87
2022-11-25T16:24:48.297Z,17.30
2022-11-25T16:27:23.854Z,13.20
2022-11-25T16:29:56.859Z,16.80
2022-11-25T16:32:29.328Z,20.07
2022-11-25T16:35:07.788Z,17.83
2022-11-25T16:37:36.180Z,15.93
2022-11-25T16:40:07.785Z,21.87
2022-11-25T16:42:35.999Z,22.27
2022-11-25T16:45:04.582Z,22.87
2022-11-25T16:47:32.865Z,20.77
2022-11-25T16:50:01.156Z,28.90
2022-11-25T16:52:29.445Z,18.93
2022-11-25T16:54:58.989Z,22.20
2022-11-25T16:57:28.664Z,22.07
2022-11-25T17:00:00.934Z,22.00
2022-11-25T17:02:29.365Z,17.90
2022-11-25T17:05:01.696Z,22.10
2022-11-25T17:07:33.167Z,19.35
2022-11-25T17:10:01.839Z,22.30
2022-11-25T17:12:35.340Z,20.10
2022-11-25T17:15:07.502Z,19.90
2022-11-25T17:17:36.647Z,20.00
2022-11-25T17:20:06.160Z,20.03
2022-11-25T17:22:38.924Z,22.37
2022-11-25T17:25:08.445Z,22.97
2022-11-25T17:27:38.535Z,28.67
2022-11-25T17:30:09.996Z,22.53
2022-11-25T17:32:38.223Z,28.90
2022-11-25T17:35:19.050Z,25.00
2022-11-25T17:37:47.944Z,21.33
2022-11-25T17:40:17.202Z,18.63
2022-11-25T17:42:49.929Z,16.57
2022-11-25T17:45:21.001Z,21.00
2022-11-25T17:47:49.711Z,24.90
2022-11-25T17:50:20.688Z,16.03
2022-11-25T17:52:49.436Z,20.77
2022-11-25T17:55:19.725Z,24.70
2022-11-25T17:57:50.617Z,21.17
2022-11-25T18:00:21.881Z,20.87
2022-11-25T18:02:50.830Z,21.43
2022-11-25T18:05:21.640Z,20.73
2022-11-25T18:07:50.648Z,22.70
2022-11-25T18:10:22.240Z,20.30
2022-11-25T18:12:55.472Z,22.90
2022-11-25T18:15:26.434Z,23.33
2022-11-25T18:18:02.034Z,25.50
2022-11-25T18:20:32.878Z,21.83
2022-11-25T18:23:01.785Z,22.13
2022-11-25T18:25:33.366Z,29.00
2022-11-25T18:28:05.169Z,30.33
2022-11-25T18:30:36.020Z,27.90
2022-11-25T18:33:06.280Z,21.40
2022-11-25T18:35:36.754Z,25.60
2022-11-25T18:38:05.788Z,24.33
2022-11-25T18:40:36.530Z,27.53
2022-11-25T18:43:07.325Z,28.77
2022-11-25T18:45:38.243Z,22.57
2022-11-25T18:48:16.192Z,27.27
2022-11-25T18:50:46.003Z,25.93
2022-11-25T18:53:14.364Z,31.40
2022-11-25T18:55:43.351Z,28.37
2022-11-25T18:58:18.931Z,27.43
2022-11-25T19:00:49.463Z,24.67
2022-11-25T19:03:20.789Z,21.00
2022-11-25T19:05:49.948Z,20.67
2022-11-25T19:08:18.619Z,21.93
2022-11-25T19:10:48.777Z,24.13
2022-11-25T19:13:21.993Z,30.83
2022-11-25T19:15:53.425Z,24.27
2022-11-25T19:18:26.753Z,27.50
2022-11-25T19:20:55.126Z,26.77
2022-11-25T19:23:26.192Z,26.27
2022-11-25T19:25:57.403Z,33.17
2022-11-25T19:28:28.344Z,26.77
2022-11-25T19:31:01.225Z,28.33
2022-11-25T19:33:34.123Z,35.10
2022-11-25T19:36:03.309Z,33.33
2022-11-25T19:38:32.870Z,28.67
2022-11-25T19:41:01.498Z,25.23
2022-11-25T19:43:31.224Z,27.73
2022-11-25T19:46:00.757Z,29.77
2022-11-25T19:48:34.942Z,34.67
2022-11-25T19:51:04.719Z,28.07
2022-11-25T19:53:34.352Z,26.57
2022-11-25T19:56:04.642Z,32.50
2022-11-25T19:58:34.647Z,30.57
2022-11-25T20:01:05.789Z,25.40
2022-11-25T20:03:34.882Z,29.27
2022-11-25T20:06:03.131Z,34.30
2022-11-25T20:08:31.390Z,32.77
2022-11-25T20:10:59.789Z,28.77
2022-11-25T20:13:28.032Z,26.90
2022-11-25T20:15:59.767Z,30.00
2022-11-25T20:18:29.093Z,30.57
2022-11-25T20:21:02.671Z,33.43
2022-11-25T20:23:40.075Z,27.10
2022-11-25T20:26:17.231Z,33.47
2022-11-25T20:28:45.484Z,28.53
2022-11-25T20:31:15.983Z,30.37
2022-11-25T20:33:44.281Z,30.20
2022-11-25T20:36:16.937Z,28.50
2022-11-25T20:38:52.773Z,39.93
2022-11-25T20:41:27.288Z,33.10
2022-11-25T20:43:57.614Z,31.83
2022-11-25T20:46:30.142Z,28.37
2022-11-25T20:49:01.653Z,31.87
2022-11-25T20:51:30.542Z,31.97
2022-11-25T20:54:01.693Z,29.00
2022-11-25T20:56:31.124Z,33.20
2022-11-25T20:58:59.348Z,34.70
2022-11-25T21:01:28.930Z,33.23
2022-11-25T21:03:57.332Z,26.90
2022-11-25T21:06:28.835Z,30.57
2022-11-25T21:09:01.014Z,30.97
2022-11-25T21:11:32.972Z,30.63
2022-11-25T21:14:01.697Z,30.83
2022-11-25T21:16:31.362Z,27.27
2022-11-25T21:18:59.692Z,30.70
2022-11-25T21:21:33.341Z,27.20
2022-11-25T21:24:09.149Z,32.20
2022-11-25T21:26:37.438Z,27.57
2022-11-25T21:29:05.649Z,28.10
2022-11-25T21:31:35.352Z,28.37
2022-11-25T21:34:06.398Z,21.33
2022-11-25T21:36:34.595Z,28.33
2022-11-25T21:39:06.834Z,31.33
2022-11-25T21:41:35.484Z,32.13
2022-11-25T21:44:07.417Z,25.57
2022-11-25T21:46:37.124Z,23.87
2022-11-25T21:49:11.797Z,33.70
2022-11-25T21:51:40.029Z,26.47
2022-11-25T21:54:08.236Z,27.90
2022-11-25T21:56:36.655Z,26.30
2022-11-25T21:59:08.143Z,29.80
2022-11-25T22:01:37.772Z,29.37
2022-11-25T22:04:06.741Z,32.53
2022-11-25T22:06:35.302Z,28.17
2022-11-25T22:09:03.562Z,29.13
2022-11-25T22:11:34.288Z,27.63
2022-11-25T22:14:06.006Z,21.37
2022-11-25T22:16:37.619Z,27.87
2022-11-25T22:19:06.078Z,29.27
2022-11-25T22:21:34.414Z,25.47
2022-11-25T22:24:02.677Z,25.17
2022-11-25T22:26:35.322Z,24.63
2022-11-25T22:29:04.664Z,28.67
2022-11-25T22:31:33.023Z,30.77
2022-11-25T22:34:02.653Z,30.27
2022-11-25T22:36:35.012Z,26.47
2022-11-25T22:39:15.281Z,34.47
2022-11-25T22:41:46.105Z,25.60
2022-11-25T22:44:23.269Z,24.57
2022-11-25T22:46:52.225Z,25.73
2022-11-25T22:49:31.104Z,31.63
2022-11-25T22:51:59.998Z,28.37
2022-11-25T22:54:28.314Z,27.20
2022-11-25T22:56:56.953Z,29.00
2022-11-25T22:59:25.219Z,23.53
2022-11-25T23:01:53.644Z,34.27
2022-11-25T23:04:23.539Z,22.10
2022-11-25T23:06:53.019Z,28.57
2022-11-25T23:09:21.413Z,31.07
2022-11-25T23:11:50.089Z,24.20
2022-11-25T23:14:18.280Z,33.47
2022-11-25T23:16:46.703Z,30.83
2022-11-25T23:19:17.696Z,27.40
2022-11-25T23:21:47.374Z,24.57
2022-11-25T23:24:17.778Z,25.97
2022-11-25T23:26:46.477Z,32.90
2022-11-25T23:29:14.729Z,29.50
2022-11-25T23:31:43.084Z,27.80
2022-11-25T23:34:14.493Z,29.00
2022-11-25T23:36:47.862Z,26.23
2022-11-25T23:39:21.036Z,25.20
2022-11-25T23:41:50.054Z,26.67
2022-11-25T23:44:25.643Z,25.50
2022-11-25T23:46:56.559Z,24.00
2022-11-25T23:49:29.366Z,28.30
2022-11-25T23:52:07.265Z,30.90
2022-11-25T23:54:40.954Z,27.33
2022-11-25T23:57:15.451Z,25.00
2022-11-25T23:59:44.085Z,26.40
